createdAt,value
2018-11-20T00:00:46.325Z,22.50
2018-11-20T00:03:38.339Z,22.50
2018-11-20T00:06:24.692Z,22.50
2018-11-20T00:09:21.489Z,22.50
2018-11-20T00:12:16.141Z,22.50
2018-11-20T00:14:55.667Z,22.50
2018-11-20T00:17:34.360Z,22.50
2018-11-20T00:20:36.530Z,22.50
2018-11-20T00:23:34.853Z,22.50
2018-11-20T00:26:27.391Z,22.50
2018-11-20T00:29:08.678Z,22.50
2018-11-20T00:31:52.593Z,22.50
2018-11-20T00:34:45.194Z,22.50
2018-11-20T00:37:35.039Z,22.50
2018-11-20T00:40:26.378Z,22.40
2018-11-20T00:43:16.038Z,22.50
2018-11-20T00:46:17.387Z,22.50
2018-11-20T00:49:04.991Z,22.50
2018-11-20T00:51:49.622Z,22.40
2018-11-20T00:54:44.599Z,22.40
2018-11-20T00:57:36.336Z,22.40
2018-11-20T01:00:16.314Z,22.40
2018-11-20T01:03:09.355Z,22.40
2018-11-20T01:06:05.211Z,22.40
2018-11-20T01:08:57.387Z,22.40
2018-11-20T01:11:47.133Z,22.40
2018-11-20T01:14:39.506Z,22.40
2018-11-20T01:17:38.127Z,22.40
2018-11-20T01:20:26.846Z,22.40
2018-11-20T01:23:08.008Z,22.40
2018-11-20T01:26:03.579Z,22.40
2018-11-20T01:28:55.605Z,22.40
2018-11-20T01:31:35.866Z,22.40
2018-11-20T01:34:30.955Z,22.40
2018-11-20T01:37:26.773Z,22.40
2018-11-20T01:40:18.881Z,22.40
2018-11-20T01:43:16.480Z,22.40
2018-11-20T01:46:12.084Z,22.40
2018-11-20T01:48:53.986Z,22.40
2018-11-20T01:51:45.614Z,22.40
2018-11-20T01:54:24.826Z,22.40
2018-11-20T01:57:15.522Z,22.40
2018-11-20T02:00:11.521Z,22.40
2018-11-20T02:03:01.901Z,22.40
2018-11-20T02:05:51.114Z,22.40
2018-11-20T02:08:58.230Z,22.40
2018-11-20T02:11:49.786Z,22.40
2018-11-20T02:14:57.864Z,22.40
2018-11-20T02:17:52.550Z,22.40
2018-11-20T02:20:41.451Z,22.40
2018-11-20T02:23:28.963Z,22.40
2018-11-20T02:26:16.649Z,22.40
2018-11-20T02:29:21.551Z,22.40
2018-11-20T02:32:19.895Z,22.40
2018-11-20T02:35:09.684Z,22.40
2018-11-20T02:38:03.491Z,22.40
2018-11-20T02:40:52.645Z,22.40
2018-11-20T02:43:41.823Z,22.40
2018-11-20T02:46:22.590Z,22.40
2018-11-20T02:49:15.399Z,22.40
2018-11-20T02:52:05.716Z,22.40
2018-11-20T02:54:52.910Z,22.40
2018-11-20T02:57:41.545Z,22.40
2018-11-20T03:00:39.105Z,22.40
2018-11-20T03:03:30.559Z,22.40
2018-11-20T03:06:33.158Z,22.40
2018-11-20T03:09:31.296Z,22.40
2018-11-20T03:12:18.517Z,22.40
2018-11-20T03:15:21.070Z,22.40
2018-11-20T03:18:16.638Z,22.40
2018-11-20T03:21:10.401Z,22.40
2018-11-20T03:23:58.153Z,22.40
2018-11-20T03:26:55.770Z,22.40
2018-11-20T03:30:15.913Z,22.40
2018-11-20T03:33:09.574Z,22.40
2018-11-20T03:36:09.495Z,22.40
2018-11-20T03:39:04.599Z,22.40
2018-11-20T03:41:50.085Z,22.40
2018-11-20T03:44:42.804Z,22.40
2018-11-20T03:47:37.679Z,22.40
2018-11-20T03:50:39.617Z,22.40
2018-11-20T03:53:38.146Z,22.40
2018-11-20T03:56:28.055Z,22.40
2018-11-20T03:59:16.014Z,22.40
2018-11-20T04:02:11.584Z,22.40
2018-11-20T04:05:03.427Z,22.40
2018-11-20T04:07:53.916Z,22.40
2018-11-20T04:10:45.367Z,22.40
2018-11-20T04:13:35.093Z,22.40
2018-11-20T04:19:59.676Z,22.50
2018-11-20T04:22:47.550Z,22.40
2018-11-20T04:25:25.321Z,22.20
2018-11-20T04:28:13.411Z,22.10
2018-11-20T04:31:32.763Z,22.10
2018-11-20T04:34:07.957Z,22.10
2018-11-20T04:36:50.408Z,22.20
2018-11-20T04:39:36.861Z,22.20
2018-11-20T04:42:36.820Z,22.30
2018-11-20T04:45:17.692Z,22.30
2018-11-20T04:48:11.523Z,22.40
2018-11-20T04:51:08.829Z,22.40
2018-11-20T04:53:59.601Z,22.50
2018-11-20T04:56:50.336Z,22.50
2018-11-20T04:59:31.598Z,22.60
2018-11-20T05:02:16.302Z,22.60
2018-11-20T05:05:16.392Z,22.60
2018-11-20T05:08:03.307Z,22.60
2018-11-20T05:10:49.003Z,22.60
2018-11-20T05:13:36.933Z,22.70
2018-11-20T05:16:30.816Z,22.60
2018-11-20T05:19:17.259Z,22.70
2018-11-20T05:22:03.650Z,22.70
2018-11-20T05:25:09.985Z,22.70
2018-11-20T05:28:03.880Z,22.70
2018-11-20T05:30:57.449Z,22.60
2018-11-20T05:33:45.354Z,22.60
2018-11-20T05:36:51.519Z,22.60
2018-11-20T05:39:29.699Z,22.60
2018-11-20T05:42:16.521Z,22.60
2018-11-20T05:45:03.263Z,22.60
2018-11-20T05:47:59.927Z,22.60
2018-11-20T05:50:46.562Z,22.50
2018-11-20T05:53:40.402Z,22.50
2018-11-20T05:56:25.539Z,22.50
2018-11-20T05:59:13.535Z,22.50
2018-11-20T06:01:59.816Z,22.50
2018-11-20T06:04:47.781Z,22.50
2018-11-20T06:07:34.604Z,22.50
2018-11-20T06:10:21.077Z,22.50
2018-11-20T06:12:58.972Z,22.50
2018-11-20T06:15:49.520Z,22.50
2018-11-20T06:18:36.010Z,22.50
2018-11-20T06:21:42.432Z,22.50
2018-11-20T06:24:32.953Z,22.50
2018-11-20T06:27:39.190Z,22.50
2018-11-20T06:30:26.317Z,22.50
2018-11-20T06:33:20.204Z,22.50
2018-11-20T06:36:06.495Z,22.50
2018-11-20T06:39:03.043Z,22.50
2018-11-20T06:41:50.954Z,22.50
2018-11-20T06:44:53.945Z,22.50
2018-11-20T06:47:47.613Z,22.50
2018-11-20T06:50:38.182Z,22.40
2018-11-20T06:53:36.189Z,22.40
2018-11-20T06:56:22.743Z,22.50
2018-11-20T06:59:13.196Z,22.50
2018-11-20T07:02:12.871Z,22.40
2018-11-20T07:04:59.619Z,22.40
2018-11-20T07:07:50.547Z,22.40
2018-11-20T07:10:37.134Z,22.40
2018-11-20T07:13:35.360Z,22.40
2018-11-20T07:17:00.491Z,22.40
2018-11-20T07:19:49.741Z,22.40
2018-11-20T07:22:36.457Z,22.40
2018-11-20T07:25:30.392Z,22.40
2018-11-20T07:28:16.668Z,22.40
2018-11-20T07:31:03.495Z,22.40
2018-11-20T07:33:50.108Z,22.40
2018-11-20T07:36:49.742Z,22.40
2018-11-20T07:39:43.420Z,22.40
2018-11-20T07:42:46.575Z,22.40
2018-11-20T07:45:33.215Z,22.40
2018-11-20T07:48:24.109Z,22.40
2018-11-20T07:51:14.689Z,22.40
2018-11-20T07:54:11.465Z,22.40
2018-11-20T07:57:05.654Z,22.40
2018-11-20T08:00:11.668Z,22.40
2018-11-20T08:02:58.348Z,22.40
2018-11-20T08:06:05.880Z,22.40
2018-11-20T08:08:53.821Z,22.40
2018-11-20T08:11:53.878Z,22.40
2018-11-20T08:14:44.717Z,22.40
2018-11-20T08:17:31.043Z,22.40
2018-11-20T08:20:17.828Z,22.40
2018-11-20T08:23:14.812Z,22.40
2018-11-20T08:25:57.280Z,22.40
2018-11-20T08:28:43.328Z,22.40
2018-11-20T08:31:37.573Z,22.40
2018-11-20T08:34:25.641Z,22.40
2018-11-20T08:37:07.675Z,22.40
2018-11-20T08:39:54.541Z,22.40
2018-11-20T08:43:00.803Z,22.40
2018-11-20T08:45:47.544Z,22.40
2018-11-20T08:48:53.951Z,22.40
2018-11-20T08:51:40.481Z,22.40
2018-11-20T08:54:43.311Z,22.40
2018-11-20T08:57:29.880Z,22.40
2018-11-20T09:00:24.631Z,22.40
2018-11-20T09:03:11.079Z,22.40
2018-11-20T09:05:57.413Z,22.40
2018-11-20T09:08:45.972Z,22.40
2018-11-20T09:11:32.756Z,22.40
2018-11-20T09:14:34.861Z,22.40
2018-11-20T09:17:31.684Z,22.40
2018-11-20T09:20:22.880Z,22.40
2018-11-20T09:23:16.497Z,22.40
2018-11-20T09:26:13.050Z,22.40
2018-11-20T09:29:13.192Z,22.40
2018-11-20T09:31:59.521Z,22.40
2018-11-20T09:34:46.365Z,22.40
2018-11-20T09:37:31.065Z,22.40
2018-11-20T09:40:54.343Z,22.40
2018-11-20T09:43:46.756Z,22.40
2018-11-20T09:46:31.705Z,22.40
2018-11-20T09:49:19.613Z,22.40
2018-11-20T09:52:06.456Z,22.40
2018-11-20T09:54:53.290Z,22.40
2018-11-20T09:57:41.129Z,22.50
2018-11-20T10:00:27.354Z,22.50
2018-11-20T10:03:23.793Z,22.50
2018-11-20T10:06:29.956Z,22.50
2018-11-20T10:09:20.399Z,22.50
2018-11-20T10:12:17.189Z,22.40
2018-11-20T10:15:16.955Z,22.40
2018-11-20T10:18:19.617Z,22.40
2018-11-20T10:21:19.433Z,22.40
2018-11-20T10:24:25.426Z,22.40
2018-11-20T10:27:12.004Z,22.40
2018-11-20T10:29:58.694Z,22.40
2018-11-20T10:32:46.595Z,22.40
2018-11-20T10:35:49.649Z,22.40
2018-11-20T10:38:36.469Z,22.40
2018-11-20T10:41:18.962Z,22.40
2018-11-20T10:44:05.722Z,22.40
2018-11-20T10:47:11.940Z,22.40
2018-11-20T10:49:58.361Z,22.40
2018-11-20T10:52:54.769Z,22.40
2018-11-20T10:55:31.687Z,22.40
2018-11-20T10:58:18.270Z,22.40
2018-11-20T11:01:05.041Z,22.40
2018-11-20T11:03:51.873Z,22.40
2018-11-20T11:06:30.636Z,22.40
2018-11-20T11:09:30.838Z,22.40
2018-11-20T11:12:17.601Z,22.40
2018-11-20T11:15:11.607Z,22.40
2018-11-20T11:18:11.547Z,22.40
2018-11-20T11:21:03.965Z,22.40
2018-11-20T11:23:50.289Z,22.40
2018-11-20T11:26:38.142Z,22.40
2018-11-20T11:29:38.197Z,22.40
2018-11-20T11:32:32.047Z,22.40
2018-11-20T11:35:26.065Z,22.40
2018-11-20T11:38:19.765Z,22.40
2018-11-20T11:41:20.207Z,22.40
2018-11-20T11:44:06.812Z,22.40
2018-11-20T11:46:56.628Z,22.40
2018-11-20T11:50:00.269Z,22.40
2018-11-20T11:52:51.323Z,22.40
2018-11-20T11:55:37.848Z,22.40
2018-11-20T11:58:25.704Z,22.40
2018-11-20T12:01:16.265Z,22.40
2018-11-20T12:06:43.825Z,22.40
2018-11-20T12:09:30.243Z,22.40
2018-11-20T12:12:16.950Z,22.40
2018-11-20T12:15:11.280Z,22.50
2018-11-20T12:17:57.457Z,22.50
2018-11-20T12:20:43.381Z,22.50
2018-11-20T12:23:27.501Z,22.50
2018-11-20T12:28:36.342Z,22.50
2018-11-20T12:31:19.647Z,22.50
2018-11-20T12:34:03.281Z,22.50
2018-11-20T12:36:59.703Z,22.50
2018-11-20T12:39:46.164Z,22.50
2018-11-20T12:42:34.133Z,22.50
2018-11-20T12:45:37.160Z,22.50
2018-11-20T12:48:25.170Z,22.50
2018-11-20T12:51:13.884Z,22.50
2018-11-20T12:54:20.143Z,22.50
2018-11-20T12:57:10.844Z,22.50
2018-11-20T12:59:58.748Z,22.50
2018-11-20T13:02:46.690Z,22.50
2018-11-20T13:05:33.353Z,22.50
2018-11-20T13:08:32.856Z,22.50
2018-11-20T13:11:21.290Z,22.50
2018-11-20T13:14:09.100Z,22.50
2018-11-20T13:16:55.795Z,22.50
2018-11-20T13:19:42.512Z,22.50
2018-11-20T13:22:31.135Z,22.50
2018-11-20T13:25:17.086Z,22.50
2018-11-20T13:28:03.591Z,22.50
2018-11-20T13:31:00.625Z,22.50
2018-11-20T13:33:37.352Z,22.50
2018-11-20T13:36:23.993Z,22.50
2018-11-20T13:39:02.988Z,22.50
2018-11-20T13:41:52.011Z,22.50
2018-11-20T13:44:47.807Z,22.50
2018-11-20T13:47:53.865Z,22.50
2018-11-20T13:50:35.505Z,22.60
2018-11-20T13:53:41.780Z,22.60
2018-11-20T13:56:28.582Z,22.60
2018-11-20T13:59:15.088Z,22.50
2018-11-20T14:02:15.286Z,22.50
2018-11-20T14:05:01.976Z,22.50
2018-11-20T14:07:48.630Z,22.60
2018-11-20T14:10:45.114Z,22.50
2018-11-20T14:13:35.703Z,22.60
2018-11-20T14:16:22.287Z,22.60
2018-11-20T14:19:09.150Z,22.60
2018-11-20T14:21:57.527Z,22.60
2018-11-20T14:24:43.774Z,22.60
2018-11-20T14:27:22.620Z,22.60
2018-11-20T14:30:16.259Z,22.60
2018-11-20T14:33:02.822Z,22.60
2018-11-20T14:35:50.804Z,22.60
2018-11-20T14:38:37.704Z,22.60
2018-11-20T14:41:31.524Z,22.60
2018-11-20T14:44:10.008Z,22.60
2018-11-20T14:46:56.242Z,22.60
2018-11-20T14:49:44.186Z,22.60
2018-11-20T14:52:34.882Z,22.60
2018-11-20T14:55:34.922Z,22.60
2018-11-20T14:58:12.081Z,22.60
2018-11-20T15:01:12.176Z,22.60
2018-11-20T15:04:11.803Z,22.60
2018-11-20T15:06:58.438Z,22.60
2018-11-20T15:09:52.038Z,22.60
2018-11-20T15:12:38.814Z,22.60
2018-11-20T15:15:28.689Z,22.60
2018-11-20T15:18:13.335Z,22.60
2018-11-20T15:21:06.849Z,22.60
2018-11-20T15:23:44.985Z,22.60
2018-11-20T15:26:31.351Z,22.60
2018-11-20T15:29:25.239Z,22.60
2018-11-20T15:32:13.213Z,22.60
2018-11-20T15:34:59.953Z,22.60
2018-11-20T15:37:50.933Z,22.60
2018-11-20T15:40:34.122Z,22.60
2018-11-20T15:43:40.357Z,22.60
2018-11-20T15:46:31.225Z,22.60
2018-11-20T15:49:19.359Z,22.60
2018-11-20T15:52:13.322Z,22.60
2018-11-20T15:54:59.795Z,22.60
2018-11-20T15:57:46.533Z,22.60
2018-11-20T16:00:31.967Z,22.60
2018-11-20T16:03:23.288Z,22.60
2018-11-20T16:06:10.855Z,22.60
2018-11-20T16:09:04.690Z,22.60
2018-11-20T16:11:46.479Z,22.60
2018-11-20T16:14:32.771Z,22.60
2018-11-20T16:17:20.694Z,22.60
2018-11-20T16:20:08.627Z,22.60
2018-11-20T16:23:05.432Z,22.60
2018-11-20T16:25:51.397Z,22.60
2018-11-20T16:28:39.239Z,22.60
2018-11-20T16:31:42.149Z,22.60
2018-11-20T16:34:30.189Z,22.60
2018-11-20T16:37:24.080Z,22.60
2018-11-20T16:40:11.987Z,22.70
2018-11-20T16:42:52.893Z,22.70
2018-11-20T16:45:39.670Z,22.70
2018-11-20T16:48:30.407Z,22.70
2018-11-20T16:51:19.428Z,22.70
2018-11-20T16:54:07.285Z,22.70
2018-11-20T16:56:53.874Z,22.60
2018-11-20T16:59:41.830Z,22.50
2018-11-20T17:02:28.610Z,22.40
2018-11-20T17:05:19.676Z,22.30
2018-11-20T17:07:59.728Z,22.30
2018-11-20T17:10:42.602Z,22.10
2018-11-20T17:13:22.221Z,22.10
2018-11-20T17:16:16.012Z,22.00
2018-11-20T17:19:02.693Z,22.00
2018-11-20T17:21:50.542Z,21.90
2018-11-20T17:24:53.410Z,21.90
2018-11-20T17:27:44.429Z,21.80
2018-11-20T17:30:31.554Z,21.80
2018-11-20T17:33:17.824Z,21.80
2018-11-20T17:36:20.606Z,21.80
2018-11-20T17:39:26.575Z,21.80
2018-11-20T17:42:13.096Z,21.80
2018-11-20T17:45:13.199Z,21.70
2018-11-20T17:48:03.961Z,22.00
2018-11-20T17:50:54.754Z,22.10
2018-11-20T17:53:57.924Z,22.30
2018-11-20T17:56:51.952Z,22.40
2018-11-20T17:59:39.904Z,22.40
2018-11-20T18:02:21.589Z,22.50
2018-11-20T18:05:30.071Z,22.60
2018-11-20T18:08:27.069Z,22.60
2018-11-20T18:11:23.609Z,22.60
2018-11-20T18:14:24.111Z,22.60
2018-11-20T18:17:20.187Z,22.70
2018-11-20T18:20:11.875Z,22.70
2018-11-20T18:23:11.675Z,22.70
2018-11-20T18:25:58.665Z,22.70
2018-11-20T18:28:45.511Z,22.80
2018-11-20T18:31:32.245Z,22.80
2018-11-20T18:34:25.272Z,22.80
2018-11-20T18:37:11.855Z,22.80
2018-11-20T18:40:18.126Z,22.80
2018-11-20T18:43:15.056Z,22.80
2018-11-20T18:46:06.040Z,22.90
2018-11-20T18:49:06.316Z,22.90
2018-11-20T18:51:54.143Z,22.90
2018-11-20T18:54:47.616Z,22.90
2018-11-20T18:57:41.528Z,23.00
2018-11-20T19:00:37.241Z,23.00
2018-11-20T19:03:37.233Z,23.00
2018-11-20T19:06:31.027Z,23.00
2018-11-20T19:09:18.273Z,23.00
2018-11-20T19:12:05.658Z,23.00
2018-11-20T19:14:53.334Z,23.00
2018-11-20T19:17:39.776Z,23.00
2018-11-20T19:20:19.293Z,23.00
2018-11-20T19:23:13.461Z,23.00
2018-11-20T19:25:59.730Z,23.00
2018-11-20T19:28:46.062Z,23.00
2018-11-20T19:31:41.569Z,22.90
2018-11-20T19:34:36.830Z,23.00
2018-11-20T19:37:25.393Z,23.00
2018-11-20T19:40:11.476Z,23.00
2018-11-20T19:43:05.226Z,23.00
2018-11-20T19:45:52.030Z,23.00
2018-11-20T19:48:38.536Z,23.00
2018-11-20T19:51:41.601Z,23.00
2018-11-20T19:54:38.734Z,23.00
2018-11-20T19:57:35.373Z,23.00
2018-11-20T20:00:39.848Z,23.00
2018-11-20T20:03:26.229Z,23.00
2018-11-20T20:06:13.189Z,23.00
2018-11-20T20:09:13.550Z,23.00
2018-11-20T20:11:56.911Z,23.00
2018-11-20T20:14:41.508Z,23.00
2018-11-20T20:17:38.158Z,23.10
2018-11-20T20:20:28.456Z,23.10
2018-11-20T20:23:34.573Z,23.10
2018-11-20T20:26:25.206Z,23.00
2018-11-20T20:29:24.076Z,23.10
2018-11-20T20:32:17.729Z,23.00
2018-11-20T20:35:04.375Z,23.00
2018-11-20T20:37:54.921Z,23.00
2018-11-20T20:40:57.596Z,23.00
2018-11-20T20:43:46.518Z,23.00
2018-11-20T20:46:39.686Z,23.00
2018-11-20T20:49:30.713Z,23.00
2018-11-20T20:52:22.088Z,23.00
2018-11-20T20:55:19.398Z,23.00
2018-11-20T20:58:19.376Z,23.10
2018-11-20T21:01:16.405Z,23.10
2018-11-20T21:04:02.541Z,23.10
2018-11-20T21:06:50.663Z,23.10
2018-11-20T21:09:33.677Z,23.10
2018-11-20T21:12:21.614Z,23.10
2018-11-20T21:15:21.596Z,23.10
2018-11-20T21:18:08.127Z,23.10
2018-11-20T21:20:58.751Z,23.10
2018-11-20T21:23:49.643Z,23.10
2018-11-20T21:26:33.256Z,23.00
2018-11-20T21:29:24.159Z,23.00
2018-11-20T21:32:26.847Z,23.00
2018-11-20T21:35:17.709Z,23.00
2018-11-20T21:38:04.445Z,23.00
2018-11-20T21:40:50.721Z,23.00
2018-11-20T21:43:37.344Z,23.00
2018-11-20T21:46:25.209Z,22.90
2018-11-20T21:49:11.697Z,22.90
2018-11-20T21:52:02.591Z,22.90
2018-11-20T21:55:08.924Z,22.90
2018-11-20T21:57:54.852Z,22.90
2018-11-20T22:00:52.563Z,22.90
2018-11-20T22:03:40.619Z,22.90
2018-11-20T22:06:27.222Z,22.90
2018-11-20T22:09:15.174Z,22.90
2018-11-20T22:11:57.301Z,22.90
2018-11-20T22:14:51.032Z,22.80
2018-11-20T22:17:47.989Z,22.80
2018-11-20T22:20:50.673Z,22.80
2018-11-20T22:23:37.249Z,22.80
2018-11-20T22:26:14.049Z,22.80
2018-11-20T22:29:00.445Z,22.80
2018-11-20T22:32:03.682Z,22.80
2018-11-20T22:34:51.603Z,22.80
2018-11-20T22:37:38.009Z,22.80
2018-11-20T22:40:34.985Z,22.80
2018-11-20T22:43:40.952Z,22.80
2018-11-20T22:46:37.646Z,22.80
2018-11-20T22:49:21.351Z,22.80
2018-11-20T22:52:06.300Z,22.80
2018-11-20T22:54:52.952Z,22.80
2018-11-20T22:57:56.185Z,22.80
2018-11-20T23:00:59.199Z,22.80
2018-11-20T23:03:45.692Z,22.80
2018-11-20T23:06:40.945Z,22.80
2018-11-20T23:09:11.297Z,22.70
2018-11-20T23:11:40.519Z,22.70
2018-11-20T23:14:09.325Z,22.70
2018-11-20T23:16:38.223Z,22.70
2018-11-20T23:19:07.239Z,22.70
2018-11-20T23:21:36.124Z,22.70
2018-11-20T23:24:05.262Z,22.70
2018-11-20T23:26:33.972Z,22.70
2018-11-20T23:29:02.757Z,22.70
2018-11-20T23:31:31.695Z,22.70
2018-11-20T23:34:00.683Z,22.70
2018-11-20T23:36:29.503Z,22.70
2018-11-20T23:38:58.405Z,22.70
2018-11-20T23:41:27.208Z,22.70
2018-11-20T23:43:56.006Z,22.70
2018-11-20T23:46:24.719Z,22.70
2018-11-20T23:48:53.620Z,22.60
2018-11-20T23:51:22.515Z,22.70
2018-11-20T23:53:51.244Z,22.70
2018-11-20T23:56:20.027Z,22.70
2018-11-20T23:58:48.852Z,22.70
